Time;durP1;ratioP1;P1;durP2;ratioP2;P2;SDS_P1;SDS_P2;PMS_P1;PMS_P2;Temp;Humidity;BMP_temperature;BMP_pressure;BME280_temperature;BME280_humidity;BME280_pressure;Samples;Min_cycle;Max_cycle;Signal;HPM_P1;HPM_P2
2022/05/22 00:01:28;;;;;;;3.25;2.10;;;9.90;99.90;;;;;;6159989;23;20196;-88
2022/05/22 00:03:54;;;;;;;1.70;1.60;;;;;;;;;;6112066;23;20646;-88
2022/05/22 00:06:27;;;;;;;1.77;1.52;;;;;;;;;;6187193;23;20148;-88
2022/05/22 00:08:56;;;;;;;2.65;1.92;;;10.90;99.90;;;;;;6162298;23;20255;-89
2022/05/22 00:11:24;;;;;;;1.88;1.70;;;;;;;;;;6136782;23;20176;-88
2022/05/22 00:13:51;;;;;;;3.63;3.03;;;11.10;99.90;;;;;;6160945;23;20161;-87
2022/05/22 00:16:37;;;;;;;3.03;2.42;;;11.00;99.90;;;;;;6186660;23;20149;-88
2022/05/22 00:19:32;;;;;;;3.63;2.38;;;11.10;99.90;;;;;;6160714;23;20610;-89
2022/05/22 00:21:59;;;;;;;2.85;1.75;;;11.10;99.90;;;;;;6129604;23;20156;-86
2022/05/22 00:24:27;;;;;;;2.15;1.73;;;11.00;99.90;;;;;;6136394;23;20226;-85
2022/05/22 00:26:56;;;;;;;2.17;1.83;;;11.00;99.90;;;;;;6187243;23;20185;-86
2022/05/22 00:29:22;;;;;;;2.45;2.25;;;11.00;99.90;;;;;;6136493;23;20189;-85
2022/05/22 00:31:48;;;;;;;3.20;2.20;;;11.00;99.90;;;;;;6136299;23;20549;-85
2022/05/22 00:34:14;;;;;;;1.75;1.65;;;11.00;99.90;;;;;;6160100;23;20208;-87
2022/05/22 00:36:43;;;;;;;2.63;1.77;;;11.00;99.90;;;;;;6136285;23;20165;-88
2022/05/22 00:39:09;;;;;;;3.90;1.98;;;11.00;99.90;;;;;;6136591;23;20168;-87
2022/05/22 00:41:36;;;;;;;1.98;1.75;;;11.00;99.90;;;;;;6160819;23;20160;-88
2022/05/22 00:44:06;;;;;;;1.60;1.50;;;11.00;99.90;;;;;;6160518;23;20512;-88
2022/05/22 00:46:37;;;;;;;2.08;1.88;;;11.00;99.90;;;;;;6161373;23;20208;-89
2022/05/22 00:49:16;;;;;;;3.10;1.63;;;11.00;99.90;;;;;;6160577;23;20268;-90
2022/05/22 00:52:06;;;;;;;6.07;2.00;;;11.00;99.90;;;;;;6161032;23;20148;-89
2022/05/22 00:54:52;;;;;;;5.20;1.30;;;11.10;99.90;;;;;;6162702;23;20187;-89
2022/05/22 00:57:45;;;;;;;;;;;;;;;;;;;;;
2022/05/22 01:06:06;;;;;;;2.85;2.30;;;11.00;99.90;;;;;;6186700;23;20208;-88
2022/05/22 01:08:34;;;;;;;2.20;1.88;;;11.10;99.90;;;;;;6186694;23;20180;-90
2022/05/22 01:11:11;;;;;;;2.33;1.85;;;11.20;99.90;;;;;;6161637;23;20183;-90
2022/05/22 01:13:41;;;;;;;2.05;1.85;;;11.20;99.90;;;;;;6194955;23;20223;-89
2022/05/22 01:16:16;;;;;;;3.88;2.80;;;11.30;99.90;;;;;;6167192;23;20157;-87
2022/05/22 01:18:47;;;;;;;3.45;2.83;;;11.30;99.90;;;;;;6138255;23;20583;-88
2022/05/22 01:21:20;;;;;;;3.75;2.83;;;11.30;99.90;;;;;;6161975;23;20203;-88
2022/05/22 01:23:50;;;;;;;2.67;2.42;;;11.30;99.90;;;;;;6186499;23;20137;-88
2022/05/22 01:26:34;;;;;;;1.95;1.85;;;11.40;99.90;;;;;;6160729;23;20180;-87
2022/05/22 01:29:00;;;;;;;2.28;2.03;;;;;;;;;;6160828;23;20509;-87
2022/05/22 01:31:31;;;;;;;5.63;4.32;;;11.40;99.90;;;;;;6160957;23;20160;-87
2022/05/22 01:33:59;;;;;;;4.03;2.60;;;11.50;99.90;;;;;;6161017;23;20157;-87
2022/05/22 01:36:26;;;;;;;2.80;2.20;;;;;;;;;;6160685;23;20185;-88
2022/05/22 01:38:54;;;;;;;2.88;2.17;;;;;;;;;;6186043;23;20188;-89
2022/05/22 01:41:20;;;;;;;2.50;2.20;;;;;;;;;;6159871;23;20157;-88
2022/05/22 01:43:51;;;;;;;1.73;1.48;;;11.50;99.90;;;;;;6159942;23;20160;-87
2022/05/22 01:46:19;;;;;;;2.40;1.98;;;11.50;99.90;;;;;;6159744;23;20196;-87
2022/05/22 01:48:55;;;;;;;1.88;1.60;;;11.50;99.90;;;;;;6135904;23;20207;-88
2022/05/22 01:51:22;;;;;;;1.70;1.48;;;;;;;;;;6136303;23;20160;-87
2022/05/22 01:53:53;;;;;;;3.60;2.90;;;11.50;99.90;;;;;;6160216;23;20167;-87
2022/05/22 01:56:19;;;;;;;3.83;3.00;;;;;;;;;;6160917;23;20482;-87
2022/05/22 01:58:53;;;;;;;3.60;2.63;;;11.50;99.90;;;;;;6159874;23;20165;-88
2022/05/22 02:01:19;;;;;;;4.05;3.55;;;;;;;;;;6160294;23;20255;-88
2022/05/22 02:03:45;;;;;;;2.95;2.13;;;;;;;;;;6160091;23;20666;-87
2022/05/22 02:06:11;;;;;;;2.30;1.77;;;;;;;;;;6159857;23;20153;-89
2022/05/22 02:08:38;;;;;;;3.10;2.40;;;;;;;;;;6159687;23;20187;-87
2022/05/22 02:11:10;;;;;;;2.95;2.60;;;11.50;99.90;;;;;;6159807;23;20220;-87
2022/05/22 02:13:47;;;;;;;4.05;2.90;;;11.50;99.90;;;;;;6186082;23;20144;-86
2022/05/22 02:16:33;;;;;;;;;;;;;;;;;;;;;
2022/05/22 02:19:09;;;;;;;;;;;;;;;;;;;;;
2022/05/22 02:21:35;;;;;;;2.92;2.50;;;;;;;;;;6185792;23;20227;-89
2022/05/22 02:24:09;;;;;;;4.53;2.33;;;;;;;;;;6159605;23;20184;-88
2022/05/22 02:26:37;;;;;;;3.03;2.35;;;;;;;;;;6159669;23;20211;-86
2022/05/22 02:29:03;;;;;;;1.63;1.52;;;;;;;;;;6159716;23;20270;-86
2022/05/22 02:31:31;;;;;;;3.00;1.45;;;;;;;;;;6159512;23;20255;-84
2022/05/22 02:33:58;;;;;;;2.15;1.85;;;11.40;99.90;;;;;;6159887;23;20163;-88
2022/05/22 02:36:33;;;;;;;1.25;1.15;;;;;;;;;;6135157;23;20160;-88
2022/05/22 02:38:59;;;;;;;1.40;1.30;;;;;;;;;;6186206;23;20571;-90
2022/05/22 02:41:32;;;;;;;1.77;1.55;;;11.50;99.90;;;;;;6185990;23;20152;-89
2022/05/22 02:43:58;;;;;;;1.92;1.70;;;;;;;;;;6112646;23;20165;-88
2022/05/22 02:46:26;;;;;;;1.67;1.30;;;11.50;99.90;;;;;;6159217;23;20705;-88
2022/05/22 02:48:54;;;;;;;1.80;1.45;;;11.50;99.90;;;;;;6159554;23;20511;-88
2022/05/22 02:51:21;;;;;;;4.55;1.85;;;11.50;99.90;;;;;;6159494;23;20168;-88
2022/05/22 02:53:47;;;;;;;2.38;1.90;;;11.40;99.90;;;;;;6159334;23;20186;-87
2022/05/22 02:56:19;;;;;;;1.95;1.85;;;11.50;99.90;;;;;;6185875;23;20180;-88
2022/05/22 02:58:45;;;;;;;1.98;1.67;;;12.00;99.90;;;;;;6160931;23;20203;-87
2022/05/22 03:01:13;;;;;;;1.13;1.02;;;;;;;;;;6160100;23;20485;-87
2022/05/22 03:03:39;;;;;;;1.55;1.42;;;11.50;99.90;;;;;;6160573;23;20172;-88
2022/05/22 03:08:49;;;;;;;2.90;2.60;;;11.70;99.90;;;;;;6185935;23;20238;-88
2022/05/22 03:11:15;;;;;;;2.13;1.90;;;11.40;99.90;;;;;;6134832;23;20251;-90
2022/05/22 03:13:40;;;;;;;1.70;1.60;;;11.50;99.90;;;;;;6159561;23;20239;-90
2022/05/22 03:16:06;;;;;;;3.45;1.40;;;;;;;;;;6110658;23;20258;-88
2022/05/22 03:18:37;;;;;;;1.58;1.45;;;11.40;99.90;;;;;;6159540;23;20653;-89
2022/05/22 03:21:05;;;;;;;3.72;2.53;;;11.40;99.90;;;;;;6185692;23;20164;-87
2022/05/22 03:23:47;;;;;;;2.38;2.17;;;11.50;99.90;;;;;;6162180;23;20165;-87
2022/05/22 03:26:15;;;;;;;2.30;1.90;;;;;;;;;;6166523;23;20584;-90
2022/05/22 03:28:41;;;;;;;2.00;1.67;;;;;;;;;;6160936;23;20511;-89
2022/05/22 03:31:08;;;;;;;2.15;2.03;;;;;;;;;;6161417;23;20161;-89
2022/05/22 03:33:36;;;;;;;2.38;1.90;;;10.80;99.90;;;;;;6170069;23;20239;-88
2022/05/22 03:36:05;;;;;;;1.70;1.60;;;11.40;99.90;;;;;;6190441;23;20219;-88
2022/05/22 03:38:33;;;;;;;2.35;2.05;;;11.30;99.90;;;;;;6187208;23;20163;-89
2022/05/22 03:40:59;;;;;;;1.85;1.75;;;8.20;99.90;;;;;;6187965;23;20207;-91
2022/05/22 03:43:30;;;;;;;2.30;1.65;;;11.20;99.90;;;;;;6161637;23;20157;-89
2022/05/22 03:46:03;;;;;;;2.80;1.98;;;11.20;99.90;;;;;;6187650;23;20671;-89
2022/05/22 03:48:31;;;;;;;3.70;2.10;;;;;;;;;;6161659;23;20183;-89
2022/05/22 03:50:57;;;;;;;3.63;1.85;;;;;;;;;;6161078;23;20161;-89
2022/05/22 03:53:23;;;;;;;1.55;1.40;;;;;;;;;;6161325;23;20157;-88
2022/05/22 03:55:57;;;;;;;1.40;1.30;;;11.20;99.90;;;;;;6192136;23;20184;-89
2022/05/22 03:58:23;;;;;;;2.42;2.00;;;;;;;;;;6165204;23;20156;-89
2022/05/22 04:00:51;;;;;;;2.22;1.65;;;11.20;99.90;;;;;;6164581;23;20193;-90
2022/05/22 04:03:19;;;;;;;2.10;1.90;;;;;;;;;;6139264;23;20647;-88
2022/05/22 04:05:47;;;;;;;2.00;1.83;;;11.30;99.90;;;;;;6180162;23;20141;-87
2022/05/22 04:08:28;;;;;;;1.45;1.35;;;11.30;99.90;;;;;;6160737;23;20191;-86
2022/05/22 04:11:06;;;;;;;2.28;2.00;;;11.40;99.90;;;;;;6185517;23;20162;-87
2022/05/22 04:13:45;;;;;;;4.83;2.23;;;11.30;99.90;;;;;;6182863;23;20643;-88
2022/05/22 04:16:12;;;;;;;2.00;1.88;;;;;;;;;;6144981;23;20191;-89
2022/05/22 04:18:57;;;;;;;2.50;1.27;;;11.30;99.90;;;;;;6160942;23;20164;-87
2022/05/22 04:21:23;;;;;;;1.05;1.00;;;;;;;;;;6136638;23;20184;-88
2022/05/22 04:26:39;;;;;;;1.90;1.20;;;11.50;99.90;;;;;;6188436;23;20192;-89
2022/05/22 04:29:17;;;;;;;1.65;1.40;;;11.50;99.90;;;;;;6138218;23;20189;-87
2022/05/22 04:31:48;;;;;;;3.75;1.90;;;11.50;99.90;;;;;;6202103;23;20155;-89
2022/05/22 04:34:26;;;;;;;;;;;;;;;;;;;;;
2022/05/22 04:36:54;;;;;;;1.60;0.93;;;;;;;;;;6191153;23;20120;-90
2022/05/22 04:39:21;;;;;;;1.08;1.00;;;;;;;;;;6189018;23;20140;-88
2022/05/22 04:41:49;;;;;;;1.27;1.17;;;;;;;;;;6188863;23;20141;-89
2022/05/22 04:44:15;;;;;;;1.92;1.10;;;;;;;;;;6188505;23;20155;-91
2022/05/22 04:46:49;;;;;;;1.20;1.10;;;11.40;99.90;;;;;;6188729;23;20184;-90
2022/05/22 04:49:15;;;;;;;2.78;2.58;;;;;;;;;;6188949;23;20182;-88
2022/05/22 04:51:52;;;;;;;1.10;1.00;;;11.40;99.90;;;;;;6188861;23;20179;-91
2022/05/22 04:54:21;;;;;;;1.42;1.33;;;;;;;;;;6166202;23;20145;-90
2022/05/22 04:56:54;;;;;;;1.60;1.50;;;;;;;;;;6188617;23;20165;-90
2022/05/22 04:59:23;;;;;;;3.72;1.75;;;;;;;;;;6188781;23;20164;-90
2022/05/22 05:01:56;;;;;;;1.60;1.50;;;11.50;99.90;;;;;;6186489;23;20192;-90
2022/05/22 05:04:24;;;;;;;2.17;1.70;;;;;;;;;;6168001;23;20199;-89
2022/05/22 05:06:55;;;;;;;1.75;1.65;;;11.50;99.90;;;;;;6163587;23;20156;-91
2022/05/22 05:09:26;;;;;;;2.42;2.22;;;11.50;99.90;;;;;;6137728;23;20552;-90
2022/05/22 05:12:05;;;;;;;4.07;1.48;;;11.80;99.90;;;;;;6161913;23;20307;-89
2022/05/22 05:14:31;;;;;;;1.73;1.63;;;;;;;;;;6162627;23;20490;-88
2022/05/22 05:17:02;;;;;;;1.90;1.50;;;11.60;99.90;;;;;;6161561;23;20163;-88
2022/05/22 05:19:28;;;;;;;1.90;1.80;;;;;;;;;;6187905;23;20172;-89
2022/05/22 05:21:59;;;;;;;3.20;2.30;;;11.50;99.90;;;;;;6161410;23;20876;-90
2022/05/22 05:24:28;;;;;;;2.20;1.98;;;;;;;;;;6187725;23;20231;-90
2022/05/22 05:26:55;;;;;;;3.33;2.60;;;;;;;;;;6161824;23;20152;-90
2022/05/22 05:29:26;;;;;;;1.98;1.40;;;11.60;99.90;;;;;;6161538;23;20223;-91
2022/05/22 05:31:59;;;;;;;1.40;1.30;;;12.10;99.90;;;;;;6162689;23;20160;-89
2022/05/22 05:34:25;;;;;;;1.60;1.50;;;11.60;99.90;;;;;;6156931;23;20502;-90
2022/05/22 05:36:59;;;;;;;2.20;2.00;;;12.00;99.90;;;;;;6160862;23;20187;-91
2022/05/22 05:39:38;;;;;;;2.20;2.00;;;12.00;99.90;;;;;;6187448;23;20148;-89
2022/05/22 05:42:09;;;;;;;2.17;1.83;;;12.00;99.90;;;;;;6160124;23;20164;-88
2022/05/22 05:44:42;;;;;;;2.58;2.38;;;11.90;99.90;;;;;;6162383;23;20521;-90
2022/05/22 05:47:12;;;;;;;1.88;1.67;;;11.90;99.90;;;;;;6160045;23;20502;-89
2022/05/22 05:49:40;;;;;;;2.88;2.53;;;11.80;99.90;;;;;;6160143;23;20258;-94
2022/05/22 05:52:12;;;;;;;2.10;1.90;;;11.70;99.90;;;;;;6160878;23;20203;-90
2022/05/22 05:54:38;;;;;;;3.80;2.88;;;;;;;;;;6187096;23;20518;-92
2022/05/22 05:57:07;;;;;;;2.30;1.70;;;;;;;;;;6186257;23;20156;-91
2022/05/22 05:59:59;;;;;;;2.80;2.55;;;11.80;99.90;;;;;;6185826;23;20152;-92
2022/05/22 06:02:25;;;;;;;2.17;1.80;;;;;;;;;;6135722;23;20164;-93
2022/05/22 06:04:52;;;;;;;2.40;1.58;;;;;;;;;;6160779;23;20584;-90
2022/05/22 06:07:25;;;;;;;2.72;1.65;;;11.70;99.90;;;;;;6160225;23;20156;-93
2022/05/22 06:09:53;;;;;;;3.90;1.73;;;;;;;;;;6159898;23;20184;-92
2022/05/22 06:12:19;;;;;;;2.80;1.83;;;;;;;;;;6160180;23;20275;-90
2022/05/22 06:14:46;;;;;;;2.88;2.22;;;;;;;;;;6159384;23;20476;-93
2022/05/22 06:17:13;;;;;;;1.40;1.30;;;;;;;;;;6159891;23;20236;-91
2022/05/22 06:19:58;;;;;;;2.30;1.65;;;11.90;99.90;;;;;;6159086;23;20218;-90
2022/05/22 06:22:30;;;;;;;1.50;1.40;;;12.00;99.90;;;;;;6159277;23;20160;-90
2022/05/22 06:24:57;;;;;;;1.30;1.10;;;12.10;99.90;;;;;;6135704;23;20167;-91
2022/05/22 06:27:31;;;;;;;1.48;1.15;;;10.10;99.90;;;;;;6185886;23;20157;-91
2022/05/22 06:30:04;;;;;;;2.65;1.60;;;;;;;;;;6160235;23;20191;-91
2022/05/22 06:32:35;;;;;;;2.05;1.00;;;12.00;99.90;;;;;;6159706;23;20164;-92
2022/05/22 06:35:01;;;;;;;0.80;0.80;;;;;;;;;;6185532;23;20145;-89
2022/05/22 06:37:48;;;;;;;0.70;0.70;;;;;;;;;;6159354;23;20240;-90
2022/05/22 06:40:13;;;;;;;0.70;0.70;;;;;;;;;;6184519;23;20160;-89
2022/05/22 06:42:47;;;;;;;1.00;1.00;;;12.00;99.90;;;;;;6160225;23;20173;-89
2022/05/22 06:45:25;;;;;;;0.70;0.70;;;12.00;99.90;;;;;;6186932;23;20157;-89
2022/05/22 06:47:51;;;;;;;0.95;0.70;;;;;;;;;;6160629;23;20184;-88
2022/05/22 06:50:39;;;;;;;0.80;0.80;;;12.10;99.90;;;;;;6160641;23;20163;-90
2022/05/22 06:53:08;;;;;;;0.70;0.70;;;;;;;;;;6186752;23;20572;-92
2022/05/22 06:55:36;;;;;;;0.73;0.73;;;;;;;;;;6162038;23;20153;-91
2022/05/22 06:58:05;;;;;;;0.70;0.70;;;12.00;99.90;;;;;;6186915;23;20152;-89
2022/05/22 07:00:40;;;;;;;1.10;1.00;;;;;;;;;;6185858;23;20163;-92
2022/05/22 07:03:32;;;;;;;1.35;1.25;;;12.00;99.90;;;;;;6172027;23;20160;-90
2022/05/22 07:06:03;;;;;;;1.30;1.10;;;12.00;99.90;;;;;;6201165;23;20155;-90
2022/05/22 07:08:38;;;;;;;1.45;1.35;;;12.10;99.90;;;;;;6166373;23;20176;-91
2022/05/22 07:13:53;;;;;;;1.08;1.08;;;;;;;;;;6197939;23;20152;-91
2022/05/22 07:16:34;;;;;;;;;;;;;;;;;;;;;
2022/05/22 07:19:03;;;;;;;1.42;1.20;;;;;;;;;;6163871;23;20228;-92
2022/05/22 07:21:42;;;;;;;1.40;1.30;;;12.70;99.90;;;;;;6161955;23;20168;-91
2022/05/22 07:24:10;;;;;;;2.40;2.20;;;12.90;99.90;;;;;;6162298;23;20152;-91
2022/05/22 07:26:44;;;;;;;0.98;0.98;;;13.00;99.90;;;;;;6137468;23;20153;-90
2022/05/22 07:29:10;;;;;;;0.73;0.70;;;;;;;;;;6137523;23;20184;-91
2022/05/22 07:31:40;;;;;;;0.95;0.95;;;13.00;99.90;;;;;;6161212;23;20165;-92
2022/05/22 07:34:07;;;;;;;1.13;1.02;;;;;;;;;;6187854;23;20149;-89
2022/05/22 07:36:35;;;;;;;0.98;0.98;;;;;;;;;;6161711;23;20210;-88
2022/05/22 07:39:06;;;;;;;1.10;1.00;;;;;;;;;;6162056;23;20164;-89
2022/05/22 07:41:32;;;;;;;1.00;1.00;;;13.20;99.90;;;;;;6161521;23;20160;-89
2022/05/22 07:44:08;;;;;;;1.33;0.70;;;13.10;99.90;;;;;;6161179;23;20199;-90
2022/05/22 07:46:34;;;;;;;0.57;0.57;;;;;;;;;;6138842;23;20535;-90
2022/05/22 07:49:02;;;;;;;1.15;0.80;;;13.00;99.90;;;;;;6161154;23;20199;-90
2022/05/22 07:51:42;;;;;;;;;;;;;;;;;;;;;
2022/05/22 07:54:10;;;;;;;0.60;0.60;;;;;;;;;;6194195;23;20191;-89
2022/05/22 07:56:40;;;;;;;0.60;0.60;;;13.20;99.90;;;;;;6200208;23;20149;-90
2022/05/22 07:59:11;;;;;;;3.88;0.80;;;13.00;99.90;;;;;;6144374;23;20156;-90
2022/05/22 08:01:44;;;;;;;0.70;0.70;;;;;;;;;;6137807;23;20167;-91
2022/05/22 08:04:17;;;;;;;0.98;0.90;;;;;;;;;;6161206;23;20163;-93
2022/05/22 08:06:44;;;;;;;0.95;0.95;;;;;;;;;;6162615;23;20652;-90
2022/05/22 08:09:12;;;;;;;0.90;0.90;;;;;;;;;;6161128;23;20275;-90
2022/05/22 08:11:38;;;;;;;0.75;0.70;;;;;;;;;;6191755;23;20207;-88
2022/05/22 08:14:17;;;;;;;0.85;0.85;;;13.30;99.90;;;;;;6167245;23;20156;-90
2022/05/22 08:16:53;;;;;;;1.38;0.52;;;13.40;99.90;;;;;;6163491;23;20141;-90
2022/05/22 08:19:22;;;;;;;3.83;0.90;;;;;;;;;;6163039;23;20144;-89
2022/05/22 08:21:58;;;;;;;0.93;0.70;;;13.50;99.90;;;;;;6187347;23;20153;-89
2022/05/22 08:24:42;;;;;;;0.75;0.70;;;13.70;99.90;;;;;;6113778;23;20164;-90
2022/05/22 08:27:08;;;;;;;0.70;0.70;;;;;;;;;;6187555;23;20454;-89
2022/05/22 08:29:34;;;;;;;0.90;0.90;;;;;;;;;;6162651;23;20188;-92
2022/05/22 08:32:13;;;;;;;0.70;0.70;;;13.60;99.90;;;;;;6161826;23;20156;-88
2022/05/22 08:34:44;;;;;;;15.40;0.90;;;13.60;99.90;;;;;;6162736;23;20160;-88
2022/05/22 08:37:10;;;;;;;0.50;0.50;;;;;;;;;;6137740;23;20227;-90
2022/05/22 08:39:38;;;;;;;0.60;0.60;;;;;;;;;;6137050;23;20168;-88
2022/05/22 08:42:29;;;;;;;;;;;;;;;;;;;;;
2022/05/22 08:44:58;;;;;;;0.70;0.70;;;13.80;99.90;;;;;;6162734;23;20240;-87
2022/05/22 08:47:38;;;;;;;0.88;0.80;;;13.80;99.90;;;;;;6187537;23;20673;-89
2022/05/22 08:50:11;;;;;;;0.73;0.73;;;14.10;99.90;;;;;;6186711;23;20149;-89
2022/05/22 08:52:45;;;;;;;0.82;0.82;;;14.20;99.90;;;;;;6159915;23;20491;-88
2022/05/22 08:59:00;;;;;;;0.80;0.80;;;14.40;99.90;;;;;;6170019;23;20179;-88
2022/05/22 09:02:02;;;;;;;1.35;0.90;;;13.80;99.90;;;;;;6160853;23;20156;-90
2022/05/22 09:04:45;;;;;;;0.93;0.80;;;14.10;99.90;;;;;;6141441;23;20215;-86
2022/05/22 09:07:41;;;;;;;0.60;0.60;;;14.20;99.90;;;;;;6160517;23;20207;-87
2022/05/22 09:10:17;;;;;;;0.70;0.70;;;14.40;99.90;;;;;;6160192;23;20177;-90
2022/05/22 09:12:58;;;;;;;0.50;0.50;;;14.10;99.90;;;;;;6161565;23;20144;-89
2022/05/22 09:16:09;;;;;;;0.70;0.70;;;14.70;99.90;;;;;;6160368;23;20160;-90
2022/05/22 09:18:48;;;;;;;0.65;0.65;;;14.60;99.90;;;;;;6092415;23;20168;-89
2022/05/22 09:21:39;;;;;;;1.70;0.75;;;16.00;99.90;;;;;;6162494;23;20152;-90
2022/05/22 09:24:26;;;;;;;1.08;0.70;;;15.00;99.90;;;;;;6146390;23;20175;-90
2022/05/22 09:27:17;;;;;;;0.50;0.50;;;15.10;99.90;;;;;;6156702;23;20556;-87
2022/05/22 09:29:48;;;;;;;0.80;0.60;;;15.10;99.90;;;;;;6186090;23;20231;-88
2022/05/22 09:32:38;;;;;;;0.77;0.77;;;15.30;99.90;;;;;;6160870;23;20188;-90
2022/05/22 09:35:09;;;;;;;0.60;0.60;;;15.80;99.90;;;;;;6160528;23;20191;-89
2022/05/22 09:37:42;;;;;;;1.00;0.60;;;;;;;;;;6160569;23;20156;-90
2022/05/22 09:40:11;;;;;;;0.90;0.60;;;;;;;;;;6160705;23;20157;-88
2022/05/22 09:43:06;;;;;;;0.63;0.63;;;15.50;99.90;;;;;;6160749;23;20160;-89
2022/05/22 09:45:32;;;;;;;1.52;0.82;;;;;;;;;;6160823;23;20235;-90
2022/05/22 09:47:58;;;;;;;2.17;0.73;;;;;;;;;;6162719;23;20192;-87
2022/05/22 09:50:46;;;;;;;0.60;0.57;;;15.80;99.90;;;;;;6160324;23;20157;-91
2022/05/22 09:54:04;;;;;;;0.55;0.55;;;15.90;99.90;;;;;;6165420;23;20291;-90
2022/05/22 09:56:29;;;;;;;0.47;0.47;;;;;;;;;;6186721;23;20161;-90
2022/05/22 09:59:31;;;;;;;0.70;0.70;;;15.50;99.90;;;;;;6160737;23;20161;-90
2022/05/22 10:02:04;;;;;;;0.65;0.65;;;15.20;99.90;;;;;;6032195;23;20215;-90
2022/05/22 10:04:39;;;;;;;0.68;0.68;;;15.30;99.90;;;;;;6160833;23;20471;-89
2022/05/22 10:07:24;;;;;;;1.98;0.60;;;15.30;99.90;;;;;;6161164;23;20485;-90
2022/05/22 10:09:59;;;;;;;0.50;0.50;;;15.80;99.90;;;;;;6161008;23;20635;-89
2022/05/22 10:13:11;;;;;;;1.75;0.57;;;15.50;99.90;;;;;;6160018;23;20214;-88
2022/05/22 10:16:21;;;;;;;3.10;0.60;;;14.90;99.90;;;;;;6124536;23;20156;-90
2022/05/22 10:19:06;;;;;;;0.50;0.50;;;14.50;99.90;;;;;;6160453;23;20170;-89
2022/05/22 10:21:59;;;;;;;0.50;0.50;;;14.50;99.90;;;;;;6187063;23;20203;-87
2022/05/22 10:24:40;;;;;;;0.50;0.50;;;15.50;99.90;;;;;;6159639;23;20163;-90
2022/05/22 10:27:28;;;;;;;1.17;0.60;;;14.20;99.90;;;;;;6186599;23;20148;-89
2022/05/22 10:30:09;;;;;;;;;;;;;;;;;;;;;
2022/05/22 10:32:57;;;;;;;0.57;0.57;;;14.20;99.90;;;;;;6187038;23;20220;-89
2022/05/22 10:35:59;;;;;;;0.55;0.55;;;14.70;99.90;;;;;;6187651;23;20180;-90
2022/05/22 10:38:39;;;;;;;0.60;0.60;;;15.20;99.90;;;;;;6187786;23;20151;-89
2022/05/22 10:44:20;;;;;;;0.82;0.82;;;15.70;99.90;;;;;;6213353;23;20136;-91
2022/05/22 10:46:51;;;;;;;0.60;0.60;;;15.80;99.90;;;;;;6187587;23;20184;-88
2022/05/22 10:49:35;;;;;;;0.85;0.70;;;16.20;99.90;;;;;;6187635;23;20180;-91
2022/05/22 10:52:03;;;;;;;0.60;0.60;;;16.30;99.90;;;;;;6187901;23;20145;-89
2022/05/22 10:54:46;;;;;;;0.85;0.80;;;16.50;99.90;;;;;;6213624;23;20133;-90
2022/05/22 10:57:18;;;;;;;0.70;0.70;;;16.70;99.90;;;;;;6187296;23;20198;-92
2022/05/22 10:59:48;;;;;;;0.68;0.68;;;16.50;99.90;;;;;;6213538;23;20141;-89
2022/05/22 11:02:26;;;;;;;0.90;0.63;;;16.50;99.90;;;;;;6187624;23;20145;-93
2022/05/22 11:05:00;;;;;;;0.70;0.70;;;16.90;99.90;;;;;;6181485;23;20714;-91
2022/05/22 11:07:29;;;;;;;1.15;1.05;;;16.40;99.90;;;;;;6160098;23;20165;-90
2022/05/22 11:10:10;;;;;;;0.77;0.77;;;16.30;99.90;;;;;;6186574;23;20272;-88
2022/05/22 11:12:40;;;;;;;0.63;0.63;;;16.10;99.90;;;;;;6159984;23;20156;-89
2022/05/22 11:15:32;;;;;;;0.50;0.50;;;15.80;99.90;;;;;;6136037;23;20168;-92
2022/05/22 11:18:09;;;;;;;0.55;0.55;;;15.80;99.90;;;;;;6186004;23;20173;-87
2022/05/22 11:20:53;;;;;;;0.57;0.57;;;15.70;99.90;;;;;;6160745;23;20223;-92
2022/05/22 11:23:45;;;;;;;0.70;0.60;;;14.20;99.90;;;;;;6162066;23;20153;-87
2022/05/22 11:26:34;;;;;;;0.77;0.68;;;15.80;99.90;;;;;;6165112;23;20157;-89
2022/05/22 11:29:26;;;;;;;0.40;0.40;;;16.00;99.90;;;;;;6184776;23;20191;-92
2022/05/22 11:32:31;;;;;;;0.95;0.68;;;16.20;99.90;;;;;;6167718;23;20155;-88
2022/05/22 11:35:14;;;;;;;0.55;0.55;;;16.50;99.90;;;;;;6193143;23;20141;-88
2022/05/22 11:37:59;;;;;;;0.57;0.47;;;16.40;99.90;;;;;;6187362;23;20141;-91
2022/05/22 11:40:48;;;;;;;3.50;0.65;;;15.90;99.90;;;;;;6160789;23;20222;-87
2022/05/22 11:43:35;;;;;;;0.70;0.70;;;16.10;99.90;;;;;;6161443;23;20235;-95
2022/05/22 11:46:30;;;;;;;0.73;0.73;;;16.50;99.90;;;;;;6161322;23;20200;-89
2022/05/22 11:49:22;;;;;;;0.60;0.60;;;16.40;99.50;;;;;;6158755;23;20189;-87
2022/05/22 11:55:11;;;;;;;0.70;0.70;;;16.50;99.90;;;;;;6171791;23;20524;-86
2022/05/22 11:57:37;;;;;;;0.70;0.70;;;;;;;;;;6164057;23;20163;-89
2022/05/22 12:00:15;;;;;;;0.65;0.55;;;16.50;97.10;;;;;;6162306;23;20596;-86
2022/05/22 12:03:02;;;;;;;0.50;0.50;;;16.60;97.60;;;;;;6161350;23;20168;-89
2022/05/22 12:05:42;;;;;;;0.32;0.32;;;16.50;97.00;;;;;;6162187;23;20231;-89
2022/05/22 12:11:31;;;;;;;0.95;0.50;;;16.60;95.90;;;;;;6187183;23;20245;-88
2022/05/22 12:14:20;;;;;;;0.30;0.30;;;17.40;95.60;;;;;;6160779;23;20598;-90
2022/05/22 12:20:19;;;;;;;1.00;0.70;;;17.30;95.80;;;;;;6187857;23;20165;-89
2022/05/22 12:23:12;;;;;;;0.40;0.40;;;16.50;96.80;;;;;;6187592;23;20208;-89
2022/05/22 12:26:03;;;;;;;0.40;0.40;;;16.10;96.80;;;;;;6096971;23;20244;-89
2022/05/22 12:28:43;;;;;;;0.50;0.50;;;15.90;97.80;;;;;;6163425;23;20516;-89
2022/05/22 12:31:18;;;;;;;0.40;0.40;;;15.70;98.20;;;;;;6163445;23;20156;-92
2022/05/22 12:33:45;;;;;;;0.50;0.50;;;15.50;99.90;;;;;;6162396;23;20163;-89
2022/05/22 12:36:16;;;;;;;0.65;0.60;;;15.50;99.90;;;;;;6138351;23;20234;-90
2022/05/22 12:38:57;;;;;;;0.60;0.52;;;15.60;99.90;;;;;;6163747;23;20161;-91
2022/05/22 12:41:40;;;;;;;0.75;0.75;;;15.40;99.90;;;;;;6163281;23;20248;-90
2022/05/22 12:44:09;;;;;;;0.60;0.60;;;15.40;99.90;;;;;;6163968;23;20160;-89
2022/05/22 12:49:57;;;;;;;1.67;1.17;;;15.30;99.90;;;;;;6040144;23;20238;-89
2022/05/22 12:52:36;;;;;;;1.48;1.25;;;15.40;99.90;;;;;;6040676;23;20164;-90
2022/05/22 12:55:24;;;;;;;2.85;1.20;;;15.30;99.40;;;;;;6189763;23;20153;-92
2022/05/22 12:58:08;;;;;;;1.67;0.70;;;15.20;99.90;;;;;;6162276;23;20543;-88
2022/05/22 13:00:57;;;;;;;0.80;0.80;;;15.10;99.90;;;;;;6161947;23;20182;-88
2022/05/22 13:03:50;;;;;;;;;;;;;;;;;;;;;
2022/05/22 13:10:12;;;;;;;;;;;;;;;;;;;;;
2022/05/22 13:12:47;;;;;;;1.23;1.05;;;15.20;99.90;;;;;;6179729;23;20187;-90
2022/05/22 13:15:37;;;;;;;;;;;;;;;;;;;;;
2022/05/22 13:18:11;;;;;;;1.00;0.95;;;;;;;;;;6190506;23;20184;-93
2022/05/22 13:20:57;;;;;;;1.40;0.98;;;14.60;99.90;;;;;;6164326;23;20161;-94
2022/05/22 13:23:30;;;;;;;0.85;0.68;;;;;;;;;;6165457;23;20214;-92
2022/05/22 13:26:29;;;;;;;0.65;0.65;;;14.60;99.90;;;;;;6164025;23;20160;-95
2022/05/22 13:35:57;;;;;;;1.83;1.20;;;14.50;99.90;;;;;;6064665;23;20171;-92
2022/05/22 13:42:06;;;;;;;;;;;;;;;;;;;;;
2022/05/22 13:44:59;;;;;;;1.15;1.00;;;14.40;99.90;;;;;;6157059;23;20188;-96
2022/05/22 13:47:28;;;;;;;1.40;0.98;;;;;;;;;;6162625;23;20516;-94
2022/05/22 13:54:04;;;;;;;0.98;0.98;;;14.30;99.90;;;;;;6172386;23;20171;-92
2022/05/22 13:56:49;;;;;;;1.92;1.30;;;14.30;99.90;;;;;;6165552;23;20156;-95
2022/05/22 14:00:04;;;;;;;0.80;0.80;;;14.50;99.90;;;;;;6166416;23;20576;-91
2022/05/22 14:03:04;;;;;;;1.60;1.10;;;14.30;99.90;;;;;;6149187;23;20167;-94
2022/05/22 14:05:56;;;;;;;1.75;1.10;;;14.30;99.90;;;;;;6189275;23;20167;-90
2022/05/22 14:08:56;;;;;;;1.42;1.08;;;14.30;99.90;;;;;;6164322;23;20338;-93
2022/05/22 14:11:30;;;;;;;1.20;1.10;;;14.30;99.90;;;;;;6163630;23;20487;-90
2022/05/22 14:14:02;;;;;;;0.70;0.70;;;14.40;99.90;;;;;;6163583;23;20476;-90
2022/05/22 14:16:40;;;;;;;0.77;0.77;;;14.40;99.90;;;;;;6164044;23;20161;-95
2022/05/22 14:19:18;;;;;;;1.30;1.08;;;14.50;99.90;;;;;;6162945;23;20170;-93
2022/05/22 14:22:10;;;;;;;3.08;1.20;;;14.40;99.90;;;;;;6166436;23;20153;-94
2022/05/22 14:27:57;;;;;;;1.00;1.00;;;14.40;99.90;;;;;;6189069;23;20242;-90
2022/05/22 14:33:28;;;;;;;;;;;;;;;;;;;;;
2022/05/22 14:36:22;;;;;;;1.00;0.90;;;14.50;99.90;;;;;;6189583;23;20533;-92
2022/05/22 14:39:09;;;;;;;1.65;1.30;;;14.50;99.90;;;;;;6164492;23;20176;-89
2022/05/22 14:45:22;;;;;;;1.20;1.10;;;14.50;99.90;;;;;;6132901;23;20176;-91
2022/05/22 14:47:51;;;;;;;0.70;0.70;;;14.40;99.90;;;;;;6190653;23;20228;-92
2022/05/22 14:50:29;;;;;;;1.70;1.05;;;14.50;99.90;;;;;;6165227;23;20156;-95
2022/05/22 14:56:28;;;;;;;1.30;0.98;;;14.50;99.90;;;;;;6187622;23;20161;-92
2022/05/22 14:59:06;;;;;;;0.73;0.73;;;14.40;99.90;;;;;;6140139;23;20176;-91
2022/05/22 15:01:42;;;;;;;1.08;1.00;;;14.50;99.90;;;;;;6174961;23;20239;-93
2022/05/22 15:04:22;;;;;;;0.93;0.93;;;14.40;99.90;;;;;;6194916;23;20137;-93
2022/05/22 15:07:09;;;;;;;0.95;0.90;;;14.30;99.90;;;;;;6193805;23;20137;-95
2022/05/22 15:09:37;;;;;;;1.20;1.10;;;14.10;99.90;;;;;;6168303;23;20184;-92
2022/05/22 15:12:49;;;;;;;;;;;;;;;;;;;;;
2022/05/22 15:15:33;;;;;;;0.82;0.82;;;13.90;99.90;;;;;;6192005;23;20168;-90
2022/05/22 15:21:15;;;;;;;1.10;1.05;;;13.50;99.90;;;;;;6119653;23;20169;-92
2022/05/22 15:26:30;;;;;;;1.45;1.30;;;14.30;99.90;;;;;;6186381;23;20219;-91
2022/05/22 15:29:17;;;;;;;;;;;;;;;;;;;;;